METAR Data
IDs: Format: Raw Decoded Include TAF

Data at: 0640 UTC 11 Dec 2018

PFNO 110556Z AUTO 07018KT 10SM FEW037 OVC048 M12/M15 A2899 RMK AO2 PK WND 06027/0509 SNE12 SLP819 P0000 60000 T11171150 11111 21128 56009 FZRANO
PFNO 110456Z AUTO 06020KT 7SM -SN SCT035 OVC047 M12/M14 A2900 RMK AO2 PK WND 06026/0454 SLP820 P0000 T11171144 FZRANO
PFNO 110356Z AUTO 06021KT 6SM -SN FEW036 BKN050 OVC060 M12/M15 A2900 RMK AO2 PK WND 06028/0323 SLP821 P0000 T11221150 FZRANO
PFNO 110256Z AUTO 05018KT 10SM -SN FEW033 BKN040 OVC075 M13/M16 A2902 RMK AO2 SNE03B56 SLP829 P0000 60000 T11281161 56007 FZRANO
PFNO 110156Z AUTO 06020KT 9SM -SN OVC038 M12/M16 A2903 RMK AO2 SNE21B39 SLP831 P0000 T11221156 FZRANO
PFNO 110056Z AUTO 06017KT 9SM -SN BKN040 OVC065 M13/M16 A2904 RMK AO2 SNB29 SLP834 P0000 T11281156 FZRANO
PFNO 102356Z AUTO 07021KT 10SM OVC050 M12/M16 A2904 RMK AO2 SNB12E28 SLP836 P0000 60000 T11221156 11111 21139 58013 FZRANO
PFNO 102256Z AUTO 06020KT 8SM OVC050 M12/M15 A2906 RMK AO2 SLP841 T11171150 FZRANO
PFNO 102156Z AUTO 06021KT 7SM OVC048 M12/M15 A2908 RMK AO2 PK WND 06026/2141 SLP848 T11221150 FZRANO
PFNO 102056Z AUTO 06019KT 9SM OVC046 M12/M15 A2908 RMK AO2 SLP849 60000 T11221150 56003 FZRANO
PFNO 101956Z AUTO 06021KT 7SM OVC050 M13/M16 A2909 RMK AO2 SLP851 T11331156 FZRANO
PFNO 101856Z AUTO 06021KT 7SM OVC048 M14/M16 A2908 RMK AO2 SNE18 SLP848 P0000 T11391161 FZRANO
PFNO 101756Z AUTO 06019KT 6SM -SN BR OVC050 M14/M16 A2909 RMK AO2 SLP852 P0000 60000 T11391161 11133 21150 58007 FZRANO
PFNO 101656Z AUTO 06020KT 6SM -SN BR FEW009 BKN048 OVC055 M14/M16 A2910 RMK AO2 SNB00 SLP857 P0000 T11391161 FZRANO
PFNO 101556Z AUTO 07021KT 5SM BR OVC050 M14/M16 A2911 RMK AO2 PK WND 07027/1545 SNB15E49 SLP860 P0000 T11391161 FZRANO
PFNO 101456Z AUTO 07022KT 6SM BR OVC050 M14/M16 A2911 RMK AO2 PK WND 07026/1421 SNE11 SLP860 P0000 60000 T11391161 58009 FZRANO
PFNO 101356Z AUTO 07018KT 7SM -SN OVC055 M13/M16 A2913 RMK AO2 SLP865 P0000 T11331161 FZRANO
PFNO 101256Z AUTO 07019KT 7SM -SN OVC060 M14/M17 A2913 RMK AO2 SLP866 P0000 T11441167 FZRANO
PFNO 101156Z AUTO 07018KT 6SM -SN BR OVC065 M16/M17 A2914 RMK AO2 SLP869 P0000 60000 T11561172 11156 21161 50000 FZRANO
PFNO 101056Z AUTO 06017KT 6SM -SN OVC032 M16/M18 A2914 RMK AO2 SLP869 P0000 T11561183 FZRANO
PFNO 100956Z AUTO 06017KT 8SM -SN BKN020 OVC025 M16/M18 A2914 RMK AO2 SLP870 P0000 T11561178 FZRANO
PFNO 100856Z AUTO 07017KT 8SM -SN OVC018 M16/M18 A2914 RMK AO2 SLP869 P0000 60000 T11561183 411221161 51007 FZRANO
PFNO 100756Z AUTO 08016KT 7SM -SN OVC018 M16/M18 A2914 RMK AO2 SLP868 P0000 T11561183 FZRANO
PFNO 100656Z AUTO 07017KT 7SM -SN OVC018 M16/M18 A2913 RMK AO2 SLP864 P0000 T11561178 FZRANO
PFNO 100556Z AUTO 08018KT 5SM -SN BR OVC020 M16/M18 A2912 RMK AO2 SLP862 P0000 60000 T11561178 11150 21156 53007 FZRANO
PFNO 100456Z AUTO 07020KT 4SM -SN BR OVC022 M16/M18 A2910 RMK AO2 SLP856 P0000 T11561178 FZRANO
PFNO 100415Z AUTO 07018KT 5SM -SN SCT022 OVC029 M15/M18 A2910 RMK AO2 P0000 FZRANO
PFNO 100356Z AUTO 08016KT 4SM -SN BR FEW022 OVC031 M15/M17 A2910 RMK AO2 SLP856 P0000 T11501172 FZRANO
PFNO 100332Z AUTO 07019KT 4SM -SN BR BKN022 BKN033 OVC047 M15/M17 A2909 RMK AO2 P0000 FZRANO
PFNO 100256Z AUTO 07015KT 4SM -SN BR FEW021 SCT028 OVC043 M16/M17 A2910 RMK AO2 SLP855 P0000 60000 T11561172 55001 FZRANO
PFNO 100156Z AUTO 07015KT 4SM -SN BR FEW012 OVC019 M15/M17 A2910 RMK AO2 SLP855 P0000 T11501172 FZRANO
PFNO 100139Z AUTO 07017KT 3SM -SN BR OVC015 M15/M17 A2910 RMK AO2 P0000 FZRANO
PFNO 100131Z AUTO 06014KT 2 1/2SM -SN BR BKN013 OVC017 M15/M17 A2910 RMK AO2 P0000 FZRANO
PFNO 100129Z AUTO 06013KT 1 3/4SM -SN BR OVC017 M15/M17 A2910 RMK AO2 P0000 FZRANO
PFNO 100122Z AUTO 07013KT 1SM -SN BR OVC017 M15/M17 A2910 RMK AO2 P0000 FZRANO
PFNO 100109Z AUTO 07014KT 1 1/4SM -SN BR OVC015 M15/M17 A2910 RMK AO2 P0000 FZRANO
PFNO 100056Z AUTO 07015KT 1SM -SN BR OVC015 M15/M17 A2910 RMK AO2 SLP856 P0000 T11501172 FZRANO
PFNO 100052Z AUTO 07016KT 1SM -SN BR OVC015 M15/M17 A2910 RMK AO2 P0000 FZRANO
PFNO 100028Z AUTO 06011KT 1 1/4SM -SN BR OVC015 M15/M17 A2911 RMK AO2 P0000 FZRANO
PFNO 100012Z AUTO 07013KT 1SM -SN BR BKN015 OVC023 M15/M17 A2911 RMK AO2 P0000 FZRANO
PFNO 100001Z AUTO 06011KT 1 3/4SM -SN BR SCT018 BKN022 OVC038 M15/M17 A2911 RMK AO2 P0000 FZRANO
PFNO 092356Z AUTO 06010KT 4SM -SN BR BKN022 BKN029 OVC046 M15/M17 A2911 RMK AO2 SLP860 P0000 60000 T11501172 11150 21156 50001 FZRANO
PFNO 092349Z AUTO 06012KT 3SM -SN BR SCT025 BKN035 OVC046 M15/M17 A2911 RMK AO2 P0000 FZRANO
PFNO 092339Z AUTO 06011KT 1 1/2SM -SN BR FEW031 SCT038 OVC046 M15/M17 A2911 RMK AO2 P0000 FZRANO
PFNO 092331Z AUTO 05011KT 2SM -SN BR OVC046 M15/M17 A2912 RMK AO2 P0000 FZRANO
PFNO 092256Z AUTO 05012KT 3SM -SN BR SCT027 BKN033 OVC046 M15/M17 A2912 RMK AO2 SLP862 P0000 T11501172 FZRANO
PFNO 092247Z AUTO 06013KT 3SM -SN BR SCT025 OVC048 M15/M17 A2912 RMK AO2 P0000 FZRANO
PFNO 092235Z AUTO 06014KT 3SM -SN BKN025 OVC050 M15/M18 A2911 RMK AO2 P0000 FZRANO
PFNO 092156Z AUTO 07014KT 7SM -SN FEW018 OVC050 M16/M18 A2911 RMK AO2 SLP859 P0000 T11561178 FZRANO
PFNO 092133Z AUTO 07013KT 4SM -SN BR FEW004 SCT018 OVC050 M16/M18 A2911 RMK AO2 P0000 FZRANO
PFNO 092122Z AUTO 07014KT 2SM -SN BR FEW004 SCT018 OVC050 M15/M17 A2911 RMK AO2 P0000 FZRANO
PFNO 092112Z AUTO 07015KT 1 1/2SM -SN BR FEW004 BKN016 OVC050 M15/M17 A2911 RMK AO2 P0000 FZRANO
PFNO 092106Z AUTO 07014KT 2SM -SN BR FEW004 BKN014 OVC050 M15/M17 A2911 RMK AO2 P0000 FZRANO
PFNO 092103Z AUTO 07014KT 2SM -SN BR SCT014 BKN019 OVC050 M16/M17 A2911 RMK AO2 P0000 FZRANO
PFNO 092056Z AUTO 07014KT 2 1/2SM -SN BR BKN014 BKN021 OVC070 M16/M17 A2911 RMK AO2 SLP859 P0000 60000 T11561172 53003 FZRANO
PFNO 092051Z AUTO 08015KT 2SM -SN BR BKN014 BKN021 OVC070 M16/M17 A2911 RMK AO2 P0000 FZRANO
PFNO 092040Z AUTO 08015KT 1 1/4SM -SN BR BKN019 BKN025 OVC070 M15/M17 A2911 RMK AO2 P0000 FZRANO
PFNO 092015Z AUTO 07016KT 2SM -SN BR OVC022 M15/M17 A2911 RMK AO2 P0000 FZRANO
PFNO 092007Z AUTO 07015KT 3SM -SN BR OVC024 M15/M17 A2910 RMK AO2 P0000 FZRANO
PFNO 091956Z AUTO 08016KT 2 1/2SM -SN BR OVC024 M15/M17 A2910 RMK AO2 SLP857 P0000 T11501172 FZRANO
PFNO 091944Z AUTO 08015KT 3SM -SN BR BKN022 OVC028 M15/M17 A2911 RMK AO2 P0000 FZRANO
PFNO 091916Z AUTO 07015KT 2SM -SN BR SCT018 OVC028 M15/M17 A2910 RMK AO2 P0000 FZRANO
PFNO 091856Z AUTO 08015KT 3SM -SN BR BKN034 OVC042 M15/M17 A2910 RMK AO2 SLP856 P0000 T11501167 FZRANO